Time;durP1;ratioP1;P1;durP2;ratioP2;P2;SDS_P1;SDS_P2;PMS_P1;PMS_P2;Temp;Humidity;BMP_temperature;BMP_pressure;BME280_temperature;BME280_humidity;BME280_pressure;Samples;Min_cycle;Max_cycle;Signal;HPM_P1;HPM_P2
2021/10/05 00:02:27;;;;;;;30.45;16.65;;;;;;;5.05;100.00;102832.50;2583179;55;20124;-69
2021/10/05 00:04:55;;;;;;;35.13;17.58;;;;;;;5.00;100.00;102829.06;2582998;55;20120;-70
2021/10/05 00:07:22;;;;;;;30.45;17.85;;;;;;;4.99;100.00;102817.63;2583177;55;20133;-70
2021/10/05 00:09:49;;;;;;;29.55;17.92;;;;;;;4.94;100.00;102822.09;2583049;55;20109;-69
2021/10/05 00:12:16;;;;;;;31.73;18.10;;;;;;;5.00;100.00;102821.12;2583116;55;20125;-71
2021/10/05 00:14:43;;;;;;;30.88;18.42;;;;;;;4.91;100.00;102823.94;2583909;55;20201;-69
2021/10/05 00:17:10;;;;;;;26.55;16.52;;;;;;;4.96;100.00;102825.63;2584097;55;20118;-70
2021/10/05 00:19:38;;;;;;;30.40;17.12;;;;;;;4.98;100.00;102833.50;2584034;55;20102;-71
2021/10/05 00:22:06;;;;;;;29.85;16.77;;;;;;;4.99;100.00;102830.84;2583921;55;20134;-70
2021/10/05 00:24:33;;;;;;;32.05;17.33;;;;;;;4.99;100.00;102822.91;2583671;55;20135;-69
2021/10/05 00:27:00;;;;;;;27.75;14.90;;;;;;;5.05;100.00;102816.63;2584014;55;20116;-70
2021/10/05 00:29:27;;;;;;;33.95;17.85;;;;;;;5.01;100.00;102820.22;2584026;55;20110;-70
2021/10/05 00:31:54;;;;;;;31.15;18.05;;;;;;;4.98;100.00;102820.28;2584078;55;20109;-70
2021/10/05 00:34:22;;;;;;;33.00;18.12;;;;;;;4.96;100.00;102822.97;2583850;55;20131;-70
2021/10/05 00:36:49;;;;;;;32.17;18.37;;;;;;;4.93;100.00;102827.44;2583865;55;20113;-70
2021/10/05 00:39:16;;;;;;;29.35;17.00;;;;;;;4.96;100.00;102824.75;2583948;55;20128;-70
2021/10/05 00:41:44;;;;;;;29.12;18.00;;;;;;;4.91;100.00;102819.53;2583988;55;20128;-69
2021/10/05 00:44:11;;;;;;;30.58;18.52;;;;;;;4.91;100.00;102822.16;2583917;55;20123;-71
2021/10/05 00:46:38;;;;;;;28.08;16.10;;;;;;;4.93;100.00;102827.44;2583973;55;20503;-70
2021/10/05 00:49:05;;;;;;;31.05;17.77;;;;;;;4.89;100.00;102826.63;2583870;55;20122;-70
2021/10/05 00:51:32;;;;;;;24.87;15.63;;;;;;;4.99;100.00;102824.66;2583629;55;20134;-71
2021/10/05 00:53:59;;;;;;;27.55;16.90;;;;;;;4.93;100.00;102823.00;2583830;55;20140;-71
2021/10/05 00:56:27;;;;;;;26.33;15.50;;;;;;;5.00;100.00;102819.37;2583816;55;20124;-70
2021/10/05 00:58:54;;;;;;;35.35;18.62;;;;;;;4.96;100.00;102837.97;2583805;55;20109;-71
2021/10/05 01:01:21;;;;;;;24.73;14.65;;;;;;;4.97;100.00;102818.53;2578667;55;20147;-71
2021/10/05 01:03:49;;;;;;;27.83;16.92;;;;;;;4.95;100.00;102826.50;2583996;55;20128;-68
2021/10/05 01:06:16;;;;;;;30.62;16.37;;;;;;;4.98;100.00;102825.56;2583865;55;20625;-72
2021/10/05 01:08:43;;;;;;;32.50;18.23;;;;;;;5.04;100.00;102836.06;2583787;55;20105;-71
2021/10/05 01:11:10;;;;;;;25.20;14.43;;;;;;;5.03;100.00;102834.31;2583731;55;20116;-72
2021/10/05 01:13:38;;;;;;;26.12;14.35;;;;;;;5.01;100.00;102834.34;2583828;55;20105;-72
2021/10/05 01:16:05;;;;;;;32.47;19.70;;;;;;;5.04;100.00;102838.72;2583562;55;20623;-72
2021/10/05 01:18:33;;;;;;;30.00;18.50;;;;;;;5.01;100.00;102829.03;2583514;55;20127;-70
2021/10/05 01:21:02;;;;;;;32.05;18.20;;;;;;;4.98;100.00;102836.16;2583693;55;20137;-70
2021/10/05 01:23:30;;;;;;;31.85;18.20;;;;;;;5.04;100.00;102836.06;2583668;55;20619;-72
2021/10/05 01:25:57;;;;;;;29.58;19.42;;;;;;;5.01;100.00;102830.81;2583772;55;20131;-71
2021/10/05 01:28:25;;;;;;;28.55;16.77;;;;;;;5.05;100.00;102832.50;2583697;55;20121;-72
2021/10/05 01:30:53;;;;;;;33.80;18.42;;;;;;;5.02;100.00;102837.88;2583798;55;20666;-70
2021/10/05 01:33:24;;;;;;;35.42;18.30;;;;;;;5.01;100.00;102841.38;2583664;55;20501;-71
2021/10/05 01:35:51;;;;;;;34.28;19.15;;;;;;;4.97;100.00;102834.41;2583635;55;20619;-72
2021/10/05 01:38:19;;;;;;;35.72;19.02;;;;;;;4.95;100.00;102836.22;2583675;55;20101;-72
2021/10/05 01:40:47;;;;;;;34.20;18.35;;;;;;;4.97;100.00;102839.72;2583656;55;20123;-72
2021/10/05 01:43:14;;;;;;;34.08;19.55;;;;;;;4.95;100.00;102839.72;2583475;55;20105;-70
2021/10/05 01:45:41;;;;;;;28.52;15.63;;;;;;;5.05;100.00;102837.81;2583525;55;20131;-70
2021/10/05 01:48:09;;;;;;;38.30;20.42;;;;;;;5.05;100.00;102839.56;2583664;55;20121;-70
2021/10/05 01:50:36;;;;;;;31.30;19.08;;;;;;;5.04;100.00;102840.47;2583712;55;20109;-72
2021/10/05 01:53:04;;;;;;;29.67;17.17;;;;;;;5.08;100.00;102843.03;2583608;55;20123;-72
2021/10/05 01:55:33;;;;;;;32.25;19.58;;;;;;;5.06;100.00;102844.84;2583556;55;20110;-72
2021/10/05 01:58:00;;;;;;;32.33;20.23;;;;;;;5.06;100.00;102847.47;2583565;55;20101;-72
2021/10/05 02:00:27;;;;;;;33.60;18.83;;;;;;;5.04;100.00;102846.66;2583721;55;20116;-70
2021/10/05 02:02:55;;;;;;;34.47;19.40;;;;;;;5.01;100.00;102842.28;2583498;55;20155;-72
2021/10/05 02:05:22;;;;;;;34.85;20.25;;;;;;;5.05;100.00;102837.81;2583592;55;20152;-72
2021/10/05 02:07:49;;;;;;;31.27;18.67;;;;;;;5.08;100.00;102843.03;2583627;55;20110;-72
2021/10/05 02:10:16;;;;;;;31.50;20.05;;;;;;;5.06;100.00;102842.19;2583236;55;20120;-70
2021/10/05 02:12:44;;;;;;;31.58;19.15;;;;;;;5.05;100.00;102834.28;2583525;55;20117;-70
2021/10/05 02:15:11;;;;;;;32.53;19.37;;;;;;;5.11;100.00;102837.72;2578126;55;20105;-71
2021/10/05 02:17:38;;;;;;;31.62;17.83;;;;;;;5.16;100.00;102834.94;2578370;55;20125;-72
2021/10/05 02:20:08;;;;;;;25.40;14.32;;;;;;;5.14;100.00;102827.06;2583725;55;20105;-70
2021/10/05 02:22:35;;;;;;;33.65;19.62;;;;;;;5.00;100.00;102819.37;2583448;55;20105;-70
2021/10/05 02:25:04;;;;;;;33.90;19.27;;;;;;;5.12;100.00;102828.88;2583398;55;20117;-72
2021/10/05 02:27:31;;;;;;;32.33;18.75;;;;;;;5.06;100.00;102842.19;2583464;55;20628;-71
2021/10/05 02:29:59;;;;;;;33.38;18.75;;;;;;;5.06;100.00;102833.37;2583549;55;20123;-71
2021/10/05 02:32:27;;;;;;;33.55;19.87;;;;;;;4.99;100.00;102822.03;2583362;55;20105;-72
2021/10/05 02:34:54;;;;;;;29.73;16.37;;;;;;;5.04;100.00;102819.31;2583277;55;20117;-72
2021/10/05 02:37:21;;;;;;;32.40;19.20;;;;;;;5.01;100.00;102821.09;2583111;55;20540;-71
2021/10/05 02:39:49;;;;;;;31.87;18.52;;;;;;;5.01;100.00;102820.22;2583432;55;20131;-70
2021/10/05 02:42:16;;;;;;;28.38;18.10;;;;;;;5.02;100.00;102822.00;2583403;55;20139;-72
2021/10/05 02:44:43;;;;;;;33.30;19.67;;;;;;;4.98;100.00;102820.28;2583367;55;20120;-72
2021/10/05 02:47:11;;;;;;;32.10;19.67;;;;;;;5.01;100.00;102822.87;2583431;55;20113;-72
2021/10/05 02:49:43;;;;;;;30.75;19.08;;;;;;;4.98;100.00;102826.47;2583500;55;20131;-72
2021/10/05 02:52:12;;;;;;;27.90;16.90;;;;;;;5.04;100.00;102820.19;2583493;55;20119;-73
2021/10/05 02:54:40;;;;;;;27.60;16.70;;;;;;;5.01;100.00;102818.47;2583335;55;20157;-70
2021/10/05 02:57:07;;;;;;;31.37;18.17;;;;;;;5.04;100.00;102830.78;2583266;55;20122;-71
2021/10/05 02:59:34;;;;;;;34.97;18.98;;;;;;;5.03;100.00;102830.78;2583330;55;20140;-72
2021/10/05 03:02:01;;;;;;;28.45;17.50;;;;;;;5.05;100.00;102821.94;2583092;55;20105;-70
2021/10/05 03:04:29;;;;;;;27.37;17.12;;;;;;;4.98;100.00;102817.63;2583402;55;20105;-70
2021/10/05 03:06:56;;;;;;;26.33;15.82;;;;;;;5.01;100.00;102825.50;2583374;55;20519;-70
2021/10/05 03:09:24;;;;;;;28.25;17.65;;;;;;;5.03;100.00;102823.72;2583340;55;20160;-70
2021/10/05 03:11:51;;;;;;;30.85;17.62;;;;;;;5.02;100.00;102811.41;2583210;55;20109;-70
2021/10/05 03:14:18;;;;;;;33.70;19.35;;;;;;;5.01;100.00;102823.75;2583321;55;20125;-72
2021/10/05 03:16:46;;;;;;;32.30;18.73;;;;;;;5.01;100.00;102830.81;2583206;55;20101;-70
2021/10/05 03:19:13;;;;;;;30.00;19.40;;;;;;;4.97;100.00;102830.00;2583217;55;20131;-72
2021/10/05 03:21:42;;;;;;;32.28;20.17;;;;;;;4.98;100.00;102829.09;2583386;55;20109;-72
2021/10/05 03:24:10;;;;;;;34.38;19.55;;;;;;;4.96;100.00;102820.34;2583280;55;20105;-72
2021/10/05 03:26:37;;;;;;;31.90;18.25;;;;;;;4.93;100.00;102817.72;2583164;55;20134;-70
2021/10/05 03:29:05;;;;;;;32.28;18.92;;;;;;;4.97;100.00;102813.25;2582987;55;20158;-72
2021/10/05 03:31:32;;;;;;;30.27;18.02;;;;;;;4.96;100.00;102811.50;2583212;55;20277;-71
2021/10/05 03:33:59;;;;;;;27.67;17.08;;;;;;;4.94;100.00;102819.47;2578062;55;20120;-70
2021/10/05 03:36:26;;;;;;;30.50;18.08;;;;;;;4.92;100.00;102807.19;2583213;55;20131;-71
2021/10/05 03:38:54;;;;;;;29.35;18.73;;;;;;;4.93;100.00;102814.22;2583178;55;20760;-71
2021/10/05 03:41:23;;;;;;;28.25;17.10;;;;;;;4.97;100.00;102813.25;2583139;55;20134;-71
2021/10/05 03:43:50;;;;;;;29.23;18.25;;;;;;;4.97;100.00;102823.84;2583202;55;20125;-70
2021/10/05 03:46:17;;;;;;;32.10;19.08;;;;;;;4.96;100.00;102822.09;2583186;55;20116;-72
2021/10/05 03:48:44;;;;;;;32.00;18.87;;;;;;;4.88;100.00;102815.16;2584035;55;20116;-72
2021/10/05 03:51:11;;;;;;;29.33;17.83;;;;;;;4.90;100.00;102812.50;2584099;55;20495;-72
2021/10/05 03:53:39;;;;;;;27.55;17.75;;;;;;;4.95;100.00;102815.06;2584071;55;20699;-70
2021/10/05 03:56:06;;;;;;;32.67;18.48;;;;;;;4.95;100.00;102820.34;2583848;55;20120;-72
2021/10/05 03:58:33;;;;;;;30.00;17.58;;;;;;;4.97;100.00;102813.25;2584018;55;20162;-70
2021/10/05 04:01:03;;;;;;;29.67;16.20;;;;;;;4.99;100.00;102814.97;2584151;55;20131;-72
2021/10/05 04:03:31;;;;;;;26.95;16.35;;;;;;;4.99;100.00;102814.09;2584134;55;20669;-72
2021/10/05 04:05:58;;;;;;;28.10;17.77;;;;;;;5.03;100.00;102822.84;2584068;55;20168;-70
2021/10/05 04:08:25;;;;;;;26.12;14.90;;;;;;;5.07;100.00;102820.13;2584108;55;20112;-71
2021/10/05 04:10:52;;;;;;;27.48;17.50;;;;;;;5.09;100.00;102826.25;2578766;55;20133;-71
2021/10/05 04:13:20;;;;;;;25.80;17.00;;;;;;;5.12;100.00;102826.22;2584077;55;20149;-72
2021/10/05 04:15:47;;;;;;;28.08;18.33;;;;;;;5.13;100.00;102822.66;2584038;55;20116;-71
2021/10/05 04:18:15;;;;;;;32.13;19.77;;;;;;;5.11;100.00;102821.81;2583998;55;20176;-69
2021/10/05 04:20:42;;;;;;;27.87;19.12;;;;;;;5.14;100.00;102824.41;2583853;55;20680;-71
2021/10/05 04:23:09;;;;;;;28.10;16.95;;;;;;;5.17;100.00;102819.94;2584017;55;20129;-70
2021/10/05 04:25:37;;;;;;;28.50;17.48;;;;;;;5.18;100.00;102821.69;2584032;55;20128;-69
2021/10/05 04:28:04;;;;;;;23.55;16.10;;;;;;;5.22;100.00;102820.75;2583889;55;20170;-69
2021/10/05 04:30:32;;;;;;;27.08;16.67;;;;;;;5.25;100.00;102818.91;2584002;55;20124;-71
2021/10/05 04:32:59;;;;;;;26.92;17.87;;;;;;;5.29;100.00;102822.38;2584009;55;20152;-71
2021/10/05 04:35:26;;;;;;;24.80;14.55;;;;;;;5.33;100.00;102815.25;2583944;55;20113;-69
2021/10/05 04:37:54;;;;;;;25.15;16.52;;;;;;;5.29;100.00;102803.84;2583916;55;20518;-71
2021/10/05 04:40:21;;;;;;;25.52;14.15;;;;;;;5.39;100.00;102813.34;2583983;55;20109;-71
2021/10/05 04:42:48;;;;;;;24.50;15.10;;;;;;;5.43;100.00;102814.16;2583995;55;20139;-70
2021/10/05 04:45:15;;;;;;;22.42;15.20;;;;;;;5.44;100.00;102810.59;2578522;55;20136;-69
2021/10/05 04:47:44;;;;;;;24.25;12.52;;;;;;;5.62;100.00;102816.44;2583909;55;20166;-69
2021/10/05 04:50:11;;;;;;;23.15;15.27;;;;;;;5.62;100.00;102817.31;2583811;55;20143;-69
2021/10/05 04:52:38;;;;;;;26.17;13.68;;;;;;;5.67;100.00;102831.31;2583917;55;20607;-69
2021/10/05 04:55:07;;;;;;;22.37;13.85;;;;;;;5.71;100.00;102832.12;2583809;55;20120;-69
2021/10/05 04:57:34;;;;;;;21.67;14.13;;;;;;;5.75;100.00;102827.66;2583804;55;20667;-72
2021/10/05 05:00:01;;;;;;;22.45;13.35;;;;;;;5.89;100.00;102824.72;2583907;55;20127;-69
2021/10/05 05:02:29;;;;;;;25.55;15.15;;;;;;;5.92;100.00;102829.94;2583906;55;20108;-71
2021/10/05 05:04:57;;;;;;;22.20;13.35;;;;;;;5.93;100.00;102839.63;2583771;55;20117;-68
2021/10/05 05:07:24;;;;;;;22.10;14.20;;;;;;;5.97;100.00;102838.66;2583716;55;20121;-69
2021/10/05 05:09:51;;;;;;;22.00;15.35;;;;;;;6.02;100.00;102839.47;2583849;55;20097;-71
2021/10/05 05:12:19;;;;;;;21.00;14.27;;;;;;;6.07;100.00;102852.59;2583766;55;20123;-70
2021/10/05 05:14:46;;;;;;;23.80;14.45;;;;;;;6.13;100.00;102848.03;2583591;55;20154;-70
2021/10/05 05:17:13;;;;;;;22.20;13.25;;;;;;;6.18;100.00;102847.94;2583864;55;20120;-71
2021/10/05 05:19:40;;;;;;;21.85;13.73;;;;;;;6.23;100.00;102846.06;2583928;55;20197;-70
2021/10/05 05:22:08;;;;;;;20.77;12.50;;;;;;;6.24;100.00;102842.50;2583882;55;20135;-71
2021/10/05 05:24:35;;;;;;;22.08;14.87;;;;;;;6.28;100.00;102851.28;2583654;55;20109;-69
2021/10/05 05:27:02;;;;;;;21.70;12.55;;;;;;;6.33;100.00;102845.88;2583698;55;20129;-69
2021/10/05 05:29:29;;;;;;;21.02;13.32;;;;;;;6.34;100.00;102847.59;2583823;55;20110;-70
2021/10/05 05:31:58;;;;;;;16.48;11.98;;;;;;;6.38;100.00;102843.97;2583888;55;20113;-69
2021/10/05 05:34:25;;;;;;;18.62;12.15;;;;;;;6.44;100.00;102835.88;2583743;55;20113;-69
2021/10/05 05:36:52;;;;;;;20.05;12.77;;;;;;;6.43;100.00;102836.78;2583525;55;20116;-71
2021/10/05 05:39:21;;;;;;;18.67;11.75;;;;;;;6.50;100.00;102835.72;2583698;55;20673;-69
2021/10/05 05:41:48;;;;;;;20.15;12.15;;;;;;;6.47;100.00;102838.44;2583411;55;20167;-69
2021/10/05 05:44:15;;;;;;;19.40;14.35;;;;;;;6.52;100.00;102835.69;2583592;55;20121;-71
2021/10/05 05:46:43;;;;;;;20.75;11.75;;;;;;;6.66;100.00;102838.00;2583699;55;20133;-70
2021/10/05 05:49:10;;;;;;;19.37;12.13;;;;;;;6.75;100.00;102843.06;2583739;55;20630;-71
2021/10/05 05:51:37;;;;;;;20.60;11.80;;;;;;;6.75;100.00;102836.87;2583782;55;20113;-71
2021/10/05 05:54:04;;;;;;;18.25;11.95;;;;;;;6.75;100.00;102827.16;2583633;55;20114;-71
2021/10/05 05:56:32;;;;;;;16.60;9.77;;;;;;;6.78;100.00;102831.53;2583551;55;20626;-71
2021/10/05 05:59:00;;;;;;;12.30;7.25;;;;;;;6.87;100.00;102814.47;2583678;55;20170;-69
2021/10/05 06:01:27;;;;;;;17.08;11.85;;;;;;;6.86;100.00;102823.34;2583508;55;20645;-70
2021/10/05 06:03:54;;;;;;;17.55;9.85;;;;;;;6.98;100.00;102812.41;2583583;55;20117;-70
2021/10/05 06:06:21;;;;;;;15.23;10.23;;;;;;;7.10;100.00;102816.53;2583542;55;20124;-69
2021/10/05 06:08:50;;;;;;;16.33;11.43;;;;;;;7.18;100.00;102805.69;2583387;55;20105;-70
2021/10/05 06:11:18;;;;;;;16.05;10.15;;;;;;;7.32;100.00;102806.22;2583194;55;20106;-70
2021/10/05 06:13:47;;;;;;;18.02;11.90;;;;;;;7.29;100.00;102819.53;2583527;55;20109;-71
2021/10/05 06:16:14;;;;;;;16.08;10.35;;;;;;;7.40;100.00;102813.94;2583473;55;20113;-70
2021/10/05 06:18:42;;;;;;;17.27;10.77;;;;;;;7.50;100.00;102809.22;2583593;55;20119;-72
2021/10/05 06:21:09;;;;;;;17.70;10.90;;;;;;;7.51;100.00;102825.12;2583540;55;20125;-70
2021/10/05 06:23:36;;;;;;;19.62;10.63;;;;;;;7.51;100.00;102816.28;2583445;55;20113;-70
2021/10/05 06:26:04;;;;;;;15.52;9.65;;;;;;;7.54;100.00;102820.63;2583392;55;20645;-70
2021/10/05 06:28:31;;;;;;;16.48;10.00;;;;;;;7.65;100.00;102819.44;2578346;55;20125;-71
2021/10/05 06:31:00;;;;;;;16.80;11.32;;;;;;;7.75;100.00;102813.84;2583558;55;20124;-70
2021/10/05 06:33:28;;;;;;;15.55;10.45;;;;;;;7.76;100.00;102819.09;2583375;55;20507;-71
2021/10/05 06:35:55;;;;;;;17.73;12.15;;;;;;;7.78;100.00;102824.38;2583109;55;20124;-71
2021/10/05 06:38:22;;;;;;;13.25;7.72;;;;;;;7.97;100.00;102819.37;2583459;55;20507;-71
2021/10/05 06:40:50;;;;;;;16.15;9.52;;;;;;;8.04;100.00;102820.91;2583557;55;20485;-70
2021/10/05 06:43:19;;;;;;;14.38;10.82;;;;;;;8.06;100.00;102815.56;2583378;55;20634;-70
2021/10/05 06:45:46;;;;;;;17.05;10.85;;;;;;;8.09;100.00;102818.12;2583362;55;20154;-70
2021/10/05 06:48:14;;;;;;;20.70;12.15;;;;;;;8.05;100.00;102805.84;2583410;55;20157;-69
2021/10/05 06:50:41;;;;;;;18.30;10.32;;;;;;;7.99;100.00;102801.59;2583404;55;20637;-70
2021/10/05 06:53:09;;;;;;;18.12;10.30;;;;;;;7.97;100.00;102807.88;2583407;55;20164;-70
2021/10/05 06:55:36;;;;;;;19.98;10.90;;;;;;;7.97;100.00;102813.19;2583293;55;20105;-71
2021/10/05 06:58:03;;;;;;;14.02;9.73;;;;;;;7.99;100.00;102814.88;2578175;55;20125;-70
2021/10/05 07:00:30;;;;;;;15.18;10.73;;;;;;;7.99;100.00;102819.31;2583243;55;20642;-70
2021/10/05 07:02:57;;;;;;;15.98;10.82;;;;;;;7.96;100.00;102812.31;2583453;55;20519;-70
2021/10/05 07:05:25;;;;;;;15.07;10.23;;;;;;;7.99;100.00;102806.03;2583464;55;20125;-70
2021/10/05 07:07:53;;;;;;;14.82;10.65;;;;;;;7.99;100.00;102812.22;2583465;55;20133;-69
2021/10/05 07:10:22;;;;;;;17.55;11.40;;;;;;;8.02;100.00;102811.28;2583272;55;20164;-69
2021/10/05 07:12:50;;;;;;;18.00;10.00;;;;;;;8.11;100.00;102808.31;2583383;55;20119;-69
2021/10/05 07:15:17;;;;;;;13.57;10.02;;;;;;;8.25;100.00;102799.03;2583223;55;20629;-69
2021/10/05 07:17:45;;;;;;;14.50;10.00;;;;;;;8.45;100.00;102796.59;2583276;55;20113;-69
2021/10/05 07:20:12;;;;;;;20.48;11.73;;;;;;;8.74;100.00;102804.53;2583163;55;20164;-71
2021/10/05 07:22:39;;;;;;;15.40;10.27;;;;;;;8.92;100.00;102797.75;2583146;55;20132;-69
2021/10/05 07:25:08;;;;;;;12.45;9.95;;;;;;;9.05;100.00;102800.81;2583051;55;20159;-69
2021/10/05 07:27:35;;;;;;;12.75;8.10;;;;;;;9.21;100.00;102809.13;2583058;55;20104;-69
2021/10/05 07:30:03;;;;;;;11.20;8.35;;;;;;;9.33;100.00;102798.03;2583198;55;20109;-69
2021/10/05 07:32:31;;;;;;;17.67;9.77;;;;;;;9.32;100.00;102795.44;2583291;55;20197;-69
2021/10/05 07:34:58;;;;;;;23.73;11.55;;;;;;;9.32;100.00;102801.62;2583470;55;20120;-70
2021/10/05 07:37:25;;;;;;;15.77;9.52;;;;;;;9.32;100.00;102790.09;2577981;55;20615;-69
2021/10/05 07:39:53;;;;;;;12.98;9.07;;;;;;;9.29;100.00;102791.06;2583311;55;20121;-69
2021/10/05 07:42:20;;;;;;;14.25;10.93;;;;;;;9.36;100.00;102798.84;2583248;55;20109;-70
2021/10/05 07:44:48;;;;;;;14.82;11.00;;;;;;;9.46;100.00;102800.25;2583232;55;20158;-69
2021/10/05 07:47:16;;;;;;;14.40;8.80;;;;;;;9.51;100.00;102808.06;2583305;55;20733;-72
2021/10/05 07:49:43;;;;;;;13.40;9.00;;;;;;;9.50;100.00;102793.88;2583099;55;20135;-70
2021/10/05 07:52:10;;;;;;;13.38;9.75;;;;;;;9.33;100.00;102807.81;2583125;55;20101;-71
2021/10/05 07:54:38;;;;;;;13.43;9.65;;;;;;;9.26;100.00;102807.19;2582954;55;20104;-70
2021/10/05 07:57:06;;;;;;;13.73;10.23;;;;;;;9.29;100.00;102800.88;2583065;55;20115;-71
2021/10/05 07:59:33;;;;;;;16.30;8.73;;;;;;;9.44;100.00;102799.44;2583118;55;20109;-70
2021/10/05 08:02:00;;;;;;;12.77;9.25;;;;;;;9.56;100.00;102804.31;2583272;55;20156;-70
2021/10/05 08:04:28;;;;;;;13.95;9.02;;;;;;;9.93;100.00;102788.69;2577931;55;20124;-71
2021/10/05 08:06:55;;;;;;;19.60;10.20;;;;;;;10.29;100.00;102798.81;2583061;55;20560;-71
2021/10/05 08:09:22;;;;;;;14.52;9.50;;;;;;;10.76;100.00;102817.41;2583215;55;20672;-71
2021/10/05 08:11:49;;;;;;;12.27;8.90;;;;;;;11.02;99.80;102807.38;2583157;55;20107;-70
2021/10/05 08:14:17;;;;;;;12.75;9.93;;;;;;;11.22;99.65;102814.53;2583196;55;20160;-70
2021/10/05 08:16:45;;;;;;;11.95;9.02;;;;;;;11.40;97.18;102818.19;2583143;55;20098;-71
2021/10/05 08:19:12;;;;;;;12.02;8.32;;;;;;;11.40;96.81;102820.84;2583029;55;20119;-70
2021/10/05 08:21:39;;;;;;;13.00;8.63;;;;;;;11.50;96.95;102835.53;2582921;55;20117;-71
2021/10/05 08:24:06;;;;;;;12.82;8.45;;;;;;;11.69;97.36;102829.34;2583066;55;20101;-71
2021/10/05 08:26:34;;;;;;;12.52;7.57;;;;;;;11.77;94.07;102823.63;2583017;55;20124;-71
2021/10/05 08:29:01;;;;;;;13.27;7.50;;;;;;;11.83;93.66;102816.22;2583044;55;20128;-70
2021/10/05 08:31:29;;;;;;;14.30;9.00;;;;;;;11.55;92.87;102822.84;2583085;55;20113;-70
2021/10/05 08:33:56;;;;;;;11.50;8.00;;;;;;;11.48;93.92;102810.69;2583217;55;20117;-70
2021/10/05 08:36:23;;;;;;;14.63;8.80;;;;;;;11.50;94.71;102807.94;2583882;55;20113;-71
2021/10/05 08:38:50;;;;;;;14.48;9.13;;;;;;;11.71;94.18;102810.56;2583740;55;20131;-71
2021/10/05 08:41:18;;;;;;;13.20;10.32;;;;;;;11.89;93.04;102793.66;2583814;55;20630;-72
2021/10/05 08:43:45;;;;;;;11.50;8.18;;;;;;;11.83;91.86;102789.47;2583897;55;20101;-71
2021/10/05 08:46:12;;;;;;;15.35;8.30;;;;;;;11.67;92.96;102785.78;2583868;55;20131;-71
2021/10/05 08:48:41;;;;;;;11.63;8.55;;;;;;;11.53;92.85;102808.69;2583690;55;20497;-71
2021/10/05 08:51:08;;;;;;;12.82;8.45;;;;;;;11.50;95.60;102802.59;2583758;55;20152;-70
2021/10/05 08:53:37;;;;;;;10.77;8.70;;;;;;;11.57;93.41;102803.19;2583815;55;20120;-71
2021/10/05 08:56:07;;;;;;;16.35;8.57;;;;;;;11.67;92.75;102810.72;2583754;55;20469;-71
2021/10/05 08:58:35;;;;;;;12.23;8.15;;;;;;;11.78;90.75;102806.69;2583852;55;20635;-71
2021/10/05 09:01:09;;;;;;;13.68;10.25;;;;;;;11.88;89.97;102799.06;2583769;55;20139;-69
2021/10/05 09:03:38;;;;;;;8.68;7.07;;;;;;;11.96;88.92;102804.94;2583896;55;20207;-71
2021/10/05 09:06:13;;;;;;;10.18;7.70;;;;;;;12.34;89.34;102799.56;2583694;55;20105;-69
2021/10/05 09:08:42;;;;;;;13.98;8.00;;;;;;;12.61;87.21;102801.75;2583741;55;20116;-71
2021/10/05 09:11:10;;;;;;;10.18;7.78;;;;;;;12.79;83.83;102801.78;2583558;55;20123;-72
2021/10/05 09:13:39;;;;;;;14.32;8.80;;;;;;;12.90;84.35;102787.84;2584003;55;20172;-71
2021/10/05 09:16:18;;;;;;;10.25;7.53;;;;;;;13.03;85.41;102790.75;2583673;55;20138;-71
2021/10/05 09:18:57;;;;;;;13.82;8.63;;;;;;;13.19;82.17;102797.00;2583845;55;20128;-69
2021/10/05 09:21:27;;;;;;;11.65;7.32;;;;;;;12.91;82.43;102771.66;2583658;55;20126;-70
2021/10/05 09:23:56;;;;;;;15.90;9.18;;;;;;;12.51;82.82;102774.59;2583767;55;20105;-70
2021/10/05 09:26:38;;;;;;;16.42;9.23;;;;;;;12.31;85.44;102772.91;2583663;55;20108;-70
2021/10/05 09:29:10;;;;;;;11.57;8.55;;;;;;;12.23;85.05;102783.16;2583630;55;20142;-70
2021/10/05 09:31:54;;;;;;;10.50;7.32;;;;;;;12.40;84.52;102782.31;2578503;55;20117;-70
2021/10/05 09:34:32;;;;;;;13.85;8.60;;;;;;;12.66;83.69;102772.97;2583781;55;20627;-70
2021/10/05 09:37:07;;;;;;;12.93;8.65;;;;;;;13.00;82.20;102788.22;2583645;55;20105;-71
2021/10/05 09:39:40;;;;;;;16.65;9.07;;;;;;;13.21;80.99;102781.69;2583710;55;20497;-70
2021/10/05 09:42:08;;;;;;;10.05;7.75;;;;;;;13.46;80.89;102798.31;2583437;55;20109;-70
2021/10/05 09:44:36;;;;;;;10.15;7.20;;;;;;;13.76;78.12;102806.50;2583564;55;20120;-70
2021/10/05 09:47:03;;;;;;;9.55;6.85;;;;;;;13.72;77.50;102812.97;2583522;55;20661;-71
2021/10/05 09:49:41;;;;;;;12.40;6.57;;;;;;;13.43;77.36;102809.19;2583619;55;20120;-71
2021/10/05 09:52:12;;;;;;;14.50;7.20;;;;;;;13.16;79.36;102797.19;2583499;55;20124;-71
2021/10/05 09:54:40;;;;;;;10.27;6.65;;;;;;;13.06;78.78;102795.94;2583516;55;20140;-71
2021/10/05 09:57:09;;;;;;;11.85;7.28;;;;;;;13.05;79.64;102799.56;2583409;55;20127;-71
2021/10/05 09:59:36;;;;;;;11.10;7.93;;;;;;;13.19;79.86;102804.19;2583485;55;20108;-71
2021/10/05 10:02:04;;;;;;;9.30;7.60;;;;;;;13.26;78.95;102796.69;2583495;55;20136;-71
2021/10/05 10:04:34;;;;;;;11.02;7.05;;;;;;;13.28;78.62;102801.03;2583580;55;20125;-71
2021/10/05 10:07:01;;;;;;;12.57;6.37;;;;;;;13.24;78.06;102806.63;2578309;55;20160;-70
2021/10/05 10:09:32;;;;;;;16.00;7.53;;;;;;;13.17;79.15;102809.63;2583445;55;20528;-70
2021/10/05 10:12:01;;;;;;;12.55;9.32;;;;;;;13.21;78.15;102803.16;2583194;55;20498;-69
2021/10/05 10:14:29;;;;;;;13.48;6.85;;;;;;;13.29;77.49;102797.41;2583421;55;20179;-70
2021/10/05 10:16:56;;;;;;;12.82;7.55;;;;;;;13.42;77.25;102829.75;2583488;55;20522;-69
2021/10/05 10:19:29;;;;;;;8.65;7.35;;;;;;;13.37;76.24;102815.75;2583542;55;20112;-70
2021/10/05 10:22:06;;;;;;;9.73;7.12;;;;;;;13.50;77.92;102795.38;2583379;55;20109;-70
2021/10/05 10:24:47;;;;;;;11.20;7.93;;;;;;;13.49;77.37;102808.88;2583530;55;20676;-72
2021/10/05 10:27:15;;;;;;;15.27;8.02;;;;;;;13.41;77.15;102816.44;2583537;55;20153;-72
2021/10/05 10:29:42;;;;;;;11.00;7.32;;;;;;;13.36;77.42;102814.00;2583501;55;20109;-71
2021/10/05 10:32:12;;;;;;;14.73;6.68;;;;;;;13.35;78.47;102815.81;2583173;55;20125;-71
2021/10/05 10:34:43;;;;;;;10.73;7.22;;;;;;;13.21;78.44;102819.22;2583388;55;20119;-71
2021/10/05 10:37:12;;;;;;;11.77;7.63;;;;;;;13.06;79.64;102817.38;2583320;55;20658;-71
2021/10/05 10:39:40;;;;;;;9.18;7.75;;;;;;;12.94;79.34;102811.72;2583324;55;20117;-71
2021/10/05 10:42:08;;;;;;;11.35;6.37;;;;;;;12.94;80.89;102786.72;2583383;55;20603;-71
2021/10/05 10:44:37;;;;;;;11.10;7.78;;;;;;;12.78;81.33;102802.72;2583317;55;20120;-71
2021/10/05 10:47:08;;;;;;;15.40;8.18;;;;;;;12.72;80.95;102805.72;2583347;55;20128;-71
2021/10/05 10:49:36;;;;;;;8.30;6.87;;;;;;;12.65;80.79;102811.41;2583451;55;20108;-71
2021/10/05 10:52:05;;;;;;;8.65;6.80;;;;;;;12.58;81.67;102812.63;2583374;55;20112;-72
2021/10/05 10:54:35;;;;;;;8.57;6.43;;;;;;;12.55;80.45;102804.78;2583226;55;20168;-71
2021/10/05 10:57:04;;;;;;;8.48;6.75;;;;;;;12.53;80.36;102810.19;2583164;55;20153;-71
2021/10/05 10:59:33;;;;;;;16.33;6.35;;;;;;;12.51;81.12;102808.53;2583034;55;20117;-71
2021/10/05 11:02:02;;;;;;;15.70;6.85;;;;;;;12.50;79.92;102813.03;2583174;55;20109;-70
2021/10/05 11:04:30;;;;;;;8.02;5.90;;;;;;;12.46;79.98;102807.91;2583409;55;20607;-71
2021/10/05 11:06:58;;;;;;;9.68;6.32;;;;;;;12.39;80.38;102808.22;2583184;55;20121;-70
2021/10/05 11:09:30;;;;;;;8.35;6.43;;;;;;;12.41;81.84;102800.09;2583292;55;20116;-70
2021/10/05 11:11:58;;;;;;;14.65;7.53;;;;;;;12.43;81.38;102792.00;2583204;55;20656;-70
2021/10/05 11:14:27;;;;;;;10.95;6.70;;;;;;;12.43;81.99;102802.72;2583288;55;20105;-70
2021/10/05 11:16:57;;;;;;;13.05;9.02;;;;;;;12.41;80.70;102801.91;2583358;55;20124;-70